Time;durP1;ratioP1;P1;durP2;ratioP2;P2;SDS_P1;SDS_P2;PMS_P1;PMS_P2;Temp;Humidity;BMP_temperature;BMP_pressure;BME280_temperature;BME280_humidity;BME280_pressure;Samples;Min_cycle;Max_cycle;Signal;HPM_P1;HPM_P2
2022/10/08 00:01:36;;;;;;;10.70;4.35;;;;;;;;;;5015038;28;20095;-77
2022/10/08 00:04:03;;;;;;;6.57;4.15;;;;;;;;;;4996409;28;20025;-77
2022/10/08 00:06:30;;;;;;;10.68;4.63;;;;;;;;;;5013504;28;20042;-77
2022/10/08 00:08:57;;;;;;;7.78;3.92;;;;;;;;;;5015676;28;20132;-77
2022/10/08 00:11:25;;;;;;;9.75;4.85;;;;;;;;;;5008073;28;20042;-78
2022/10/08 00:13:52;;;;;;;9.88;4.57;;;;;;;;;;5005319;28;20033;-77
2022/10/08 00:16:31;;;;;;;14.05;5.72;;;;;;;;;;5004526;28;20121;-77
2022/10/08 00:19:00;;;;;;;17.00;7.40;;;;;;;;;;5004703;28;20034;-78
2022/10/08 00:21:30;;;;;;;11.95;6.97;;;;;;;;;;5004159;28;20061;-77
2022/10/08 00:23:56;;;;;;;11.98;7.72;;;;;;;;;;5003965;28;20038;-77
2022/10/08 00:26:24;;;;;;;12.13;6.47;;;;;;;;;;5007197;28;20038;-78
2022/10/08 00:28:51;;;;;;;12.52;7.20;;;;;;;;;;5010753;28;20105;-77
2022/10/08 00:31:19;;;;;;;15.55;7.35;;;;;;;;;;5001604;28;20045;-77
2022/10/08 00:33:48;;;;;;;9.27;6.30;;;;;;;;;;5013010;28;20033;-77
2022/10/08 00:36:14;;;;;;;8.27;5.57;;;;;;;;;;5005930;28;20041;-77
2022/10/08 00:38:40;;;;;;;10.80;5.65;;;;;;;;;;5010082;28;20026;-78
2022/10/08 00:41:08;;;;;;;16.90;6.80;;;;;;;;;;5007418;28;20795;-77
2022/10/08 00:43:44;;;;;;;10.75;6.07;;;;;;;;;;5006954;28;20668;-77
2022/10/08 00:46:21;;;;;;;10.63;6.43;;;;;;;;;;5006077;28;20109;-77
2022/10/08 00:48:49;;;;;;;10.52;5.22;;;;;;;;;;5013670;28;20062;-77
2022/10/08 00:51:15;;;;;;;12.52;5.63;;;;;;;;;;5012863;28;20388;-77
2022/10/08 00:53:41;;;;;;;11.20;5.57;;;;;;;;;;5006492;28;20038;-77
2022/10/08 00:56:08;;;;;;;9.50;5.38;;;;;;;;;;5014355;28;20038;-77
2022/10/08 00:58:35;;;;;;;11.70;6.70;;;;;;;;;;5005489;28;20038;-77
2022/10/08 01:01:01;;;;;;;11.25;6.82;;;;;;;;;;5009746;28;20045;-78
2022/10/08 01:03:27;;;;;;;10.23;6.25;;;;;;;;;;5012444;28;20044;-78
2022/10/08 01:05:56;;;;;;;8.18;5.40;;;;;;;;;;5004064;28;20038;-77
2022/10/08 01:08:40;;;;;;;9.32;5.47;;;;;;;;;;5003127;28;20029;-78
2022/10/08 01:11:25;;;;;;;12.30;5.50;;;;;;;;;;5004640;28;20041;-77
2022/10/08 01:13:54;;;;;;;10.70;4.72;;;;;;;;;;5008359;28;20050;-77
2022/10/08 01:16:29;;;;;;;9.55;5.20;;;;;;;;;;5010914;28;20034;-77
2022/10/08 01:19:15;;;;;;;11.00;5.38;;;;;;;;;;5001581;28;20539;-77
2022/10/08 01:21:51;;;;;;;12.35;6.18;;;;;;;;;;5008770;28;20170;-77
2022/10/08 01:27:30;;;;;;;10.85;7.45;;;;;;;;;;4995941;28;20076;-77
2022/10/08 01:30:00;;;;;;;12.63;6.93;;;;;;;;;;5000559;28;20505;-77
2022/10/08 01:32:28;;;;;;;12.48;6.88;;;;;;;;;;5005279;28;20811;-77
2022/10/08 01:35:01;;;;;;;11.90;6.13;;;;;;;;;;5008701;28;20561;-77
2022/10/08 01:37:31;;;;;;;12.27;6.88;;;;;;;;;;5006141;28;20652;-77
2022/10/08 01:39:59;;;;;;;12.38;7.07;;;;;;;;;;5006381;28;20059;-77
2022/10/08 01:42:26;;;;;;;14.43;7.40;;;;;;;;;;5000126;28;20532;-78
2022/10/08 01:44:58;;;;;;;14.27;7.25;;;;;;;;;;5000660;28;20034;-78
2022/10/08 01:47:27;;;;;;;14.65;8.25;;;;;;;;;;5000396;28;20049;-77
2022/10/08 01:49:58;;;;;;;10.65;7.47;;;;;;;;;;5012848;28;20096;-78
2022/10/08 01:52:29;;;;;;;9.80;5.43;;;;;;;;;;4997808;28;20477;-77
2022/10/08 01:54:58;;;;;;;9.90;5.90;;;;;;;;;;5003038;28;20113;-77
2022/10/08 01:57:26;;;;;;;13.98;5.90;;;;;;;;;;5003747;28;20268;-77
2022/10/08 01:59:55;;;;;;;13.88;6.10;;;;;;;;;;5008002;28;20092;-77
2022/10/08 02:02:22;;;;;;;10.75;6.15;;;;;;;;;;5007424;28;20030;-77
2022/10/08 02:04:52;;;;;;;10.05;6.82;;;;;;;;;;5007865;28;20042;-77
2022/10/08 02:07:29;;;;;;;9.70;7.15;;;;;;;;;;5010258;28;20057;-78
2022/10/08 02:10:12;;;;;;;13.02;9.15;;;;;;;;;;5006242;28;20427;-77
2022/10/08 02:12:39;;;;;;;15.18;9.35;;;;;;;;;;5009784;28;20022;-77
2022/10/08 02:15:06;;;;;;;11.55;6.82;;;;;;;;;;5011727;28;20121;-77
2022/10/08 02:17:50;;;;;;;7.65;4.88;;;;;;;;;;5003398;28;20034;-77
2022/10/08 02:20:19;;;;;;;11.90;5.40;;;;;;;;;;5002982;28;20041;-77
2022/10/08 02:22:58;;;;;;;11.82;5.18;;;;;;;;;;5015840;28;20061;-77
2022/10/08 02:25:36;;;;;;;10.30;5.40;;;;;;;;;;5006227;28;20046;-77
2022/10/08 02:28:02;;;;;;;11.55;5.47;;;;;;;;;;5006180;28;20033;-77
2022/10/08 02:30:32;;;;;;;11.63;5.95;;;;;;;;;;5011434;28;20096;-77
2022/10/08 02:33:01;;;;;;;12.57;5.45;;;;;;;;;;5009864;28;20033;-77
2022/10/08 02:35:46;;;;;;;9.07;5.40;;;;;;;;;;5001572;28;20052;-77
2022/10/08 02:38:39;;;;;;;7.93;5.03;;;;;;;;;;4992233;28;20373;-77
2022/10/08 02:41:04;;;;;;;;;;;;;;;;;;4973777;28;20046;-77
2022/10/08 02:43:33;;;;;;;10.57;7.20;;;;;;;;;;5011998;28;19919;-77
2022/10/08 02:46:16;;;;;;;11.77;6.63;;;;;;;;;;5002561;28;20042;-77
2022/10/08 02:48:55;;;;;;;10.18;6.95;;;;;;;;;;4997607;28;20037;-77
2022/10/08 02:51:21;;;;;;;11.38;6.50;;;;;;;;;;5003334;28;20034;-77
2022/10/08 02:53:48;;;;;;;11.65;5.20;;;;;;;;;;5013264;28;20037;-78
2022/10/08 02:56:14;;;;;;;9.77;6.22;;;;;;;;;;5013439;28;20062;-77
2022/10/08 02:58:42;;;;;;;8.90;5.85;;;;;;;;;;5003334;28;20066;-78
2022/10/08 03:01:17;;;;;;;9.65;7.00;;;;;;;;;;5011232;28;20040;-77
2022/10/08 03:03:46;;;;;;;10.27;6.68;;;;;;;;;;5001316;28;20469;-77
2022/10/08 03:06:13;;;;;;;10.80;7.00;;;;;;;;;;5007688;28;20033;-77
2022/10/08 03:08:45;;;;;;;9.75;6.82;;;;;;;;;;5016719;28;20045;-77
2022/10/08 03:11:11;;;;;;;11.88;7.88;;;;;;;;;;5012362;28;20087;-77
2022/10/08 03:13:39;;;;;;;11.30;5.45;;;;;;;;;;5014802;28;20033;-78
2022/10/08 03:16:07;;;;;;;8.57;5.60;;;;;;;;;;5012497;28;20034;-77
2022/10/08 03:18:33;;;;;;;9.63;5.53;;;;;;;;;;4998472;28;20029;-77
2022/10/08 03:20:59;;;;;;;9.30;5.65;;;;;;;;;;5007953;28;20037;-77
2022/10/08 03:23:25;;;;;;;10.95;5.53;;;;;;;;;;5006753;28;20784;-77
2022/10/08 03:25:51;;;;;;;9.93;5.07;;;;;;;;;;5009046;28;20038;-77
2022/10/08 03:28:17;;;;;;;12.35;5.47;;;;;;;;;;5009132;28;20037;-77
2022/10/08 03:30:43;;;;;;;8.35;5.05;;;;;;;;;;5002318;28;20121;-77
2022/10/08 03:33:09;;;;;;;9.60;5.13;;;;;;;;;;5008826;28;20037;-78
2022/10/08 03:35:35;;;;;;;8.02;5.35;;;;;;;;;;5009298;28;20057;-77
2022/10/08 03:38:01;;;;;;;10.40;6.07;;;;;;;;;;5000066;28;20158;-77
2022/10/08 03:40:27;;;;;;;13.57;6.32;;;;;;;;;;5006401;28;20038;-77
2022/10/08 03:42:53;;;;;;;10.05;5.35;;;;;;;;;;5001664;28;20101;-77
2022/10/08 03:45:19;;;;;;;9.18;5.72;;;;;;;;;;5002747;28;20121;-77
2022/10/08 03:47:50;;;;;;;9.25;5.93;;;;;;;;;;5006607;28;20400;-77
2022/10/08 03:50:16;;;;;;;12.95;7.75;;;;;;;;;;5015415;28;20048;-77
2022/10/08 03:52:42;;;;;;;11.80;5.97;;;;;;;;;;5004168;28;20026;-76
2022/10/08 03:55:08;;;;;;;12.43;7.75;;;;;;;;;;4997159;28;20109;-77
2022/10/08 03:57:34;;;;;;;14.95;6.45;;;;;;;;;;4999994;28;20156;-77
2022/10/08 04:00:00;;;;;;;15.00;5.95;;;;;;;;;;4990421;28;20124;-77
2022/10/08 04:02:26;;;;;;;8.80;5.72;;;;;;;;;;4989993;28;20026;-77
2022/10/08 04:04:52;;;;;;;12.90;6.57;;;;;;;;;;5001806;28;20042;-77
2022/10/08 04:07:18;;;;;;;11.00;6.35;;;;;;;;;;5009495;28;20476;-78
2022/10/08 04:09:44;;;;;;;9.73;5.75;;;;;;;;;;5007188;28;20152;-77
2022/10/08 04:12:10;;;;;;;9.10;5.97;;;;;;;;;;5014719;28;20041;-77
2022/10/08 04:14:36;;;;;;;11.18;5.55;;;;;;;;;;5002844;28;20034;-77
2022/10/08 04:17:02;;;;;;;11.73;5.55;;;;;;;;;;4999759;28;20038;-77
2022/10/08 04:19:28;;;;;;;12.07;5.72;;;;;;;;;;5013789;28;20377;-77
2022/10/08 04:21:54;;;;;;;9.98;5.90;;;;;;;;;;5008335;28;20037;-77
2022/10/08 04:24:19;;;;;;;10.02;5.95;;;;;;;;;;4998139;28;20042;-78
2022/10/08 04:26:45;;;;;;;10.95;5.45;;;;;;;;;;5006765;28;20036;-77
2022/10/08 04:29:11;;;;;;;9.80;5.50;;;;;;;;;;5007273;28;20040;-78
2022/10/08 04:31:39;;;;;;;10.13;4.75;;;;;;;;;;4994173;28;20476;-77
2022/10/08 04:34:05;;;;;;;21.02;6.40;;;;;;;;;;5009740;28;20084;-78
2022/10/08 04:36:31;;;;;;;12.95;5.63;;;;;;;;;;5006779;28;20452;-77
2022/10/08 04:38:57;;;;;;;11.77;6.03;;;;;;;;;;5013027;28;20061;-77
2022/10/08 04:41:24;;;;;;;10.48;4.28;;;;;;;;;;5003826;28;20026;-77
2022/10/08 04:43:50;;;;;;;13.60;5.40;;;;;;;;;;5008111;28;20046;-77
2022/10/08 04:46:17;;;;;;;9.32;4.82;;;;;;;;;;5010922;28;20420;-77
2022/10/08 04:48:47;;;;;;;8.18;5.25;;;;;;;;;;4997975;28;20116;-77
2022/10/08 04:51:13;;;;;;;7.95;5.22;;;;;;;;;;5001014;28;20397;-76
2022/10/08 04:53:39;;;;;;;9.68;5.32;;;;;;;;;;5007003;28;20096;-77
2022/10/08 04:56:10;;;;;;;10.80;4.65;;;;;;;;;;5003234;28;20026;-77
2022/10/08 04:58:36;;;;;;;10.00;5.20;;;;;;;;;;5001493;28;20048;-77
2022/10/08 05:01:06;;;;;;;11.75;5.32;;;;;;;;;;5000913;28;20049;-77
2022/10/08 05:03:36;;;;;;;7.78;5.35;;;;;;;;;;5000598;28;20066;-77
2022/10/08 05:06:02;;;;;;;8.93;5.38;;;;;;;;;;5001225;28;20049;-77
2022/10/08 05:08:29;;;;;;;11.70;5.00;;;;;;;;;;4992203;28;20371;-77
2022/10/08 05:10:55;;;;;;;11.23;5.93;;;;;;;;;;5002846;28;20468;-77
2022/10/08 05:13:20;;;;;;;13.55;5.72;;;;;;;;;;5005549;28;20030;-77
2022/10/08 05:15:47;;;;;;;14.10;6.60;;;;;;;;;;4999742;28;20072;-77
2022/10/08 05:18:13;;;;;;;8.15;4.75;;;;;;;;;;5004805;28;20037;-77
2022/10/08 05:20:39;;;;;;;12.43;5.20;;;;;;;;;;5021183;28;20614;-77
2022/10/08 05:23:05;;;;;;;12.15;5.07;;;;;;;;;;4993865;28;20652;-77
2022/10/08 05:25:32;;;;;;;11.23;5.13;;;;;;;;;;5003007;28;20088;-77
2022/10/08 05:27:58;;;;;;;11.60;5.63;;;;;;;;;;5011590;28;20033;-77
2022/10/08 05:30:24;;;;;;;7.38;4.97;;;;;;;;;;5006701;28;20493;-77
2022/10/08 05:32:50;;;;;;;10.40;6.00;;;;;;;;;;5004529;28;20030;-77
2022/10/08 05:35:16;;;;;;;10.35;6.20;;;;;;;;;;5001699;28;20057;-77
2022/10/08 05:37:42;;;;;;;9.77;5.55;;;;;;;;;;5009804;28;20071;-77
2022/10/08 05:40:08;;;;;;;15.10;6.15;;;;;;;;;;5021555;28;20045;-77
2022/10/08 05:42:34;;;;;;;8.65;5.05;;;;;;;;;;5008198;28;20042;-76
2022/10/08 05:45:00;;;;;;;16.10;7.25;;;;;;;;;;5014128;28;20046;-77
2022/10/08 05:47:26;;;;;;;17.50;5.55;;;;;;;;;;5008417;28;20441;-78
2022/10/08 05:49:52;;;;;;;8.57;4.80;;;;;;;;;;5005031;28;20049;-78
2022/10/08 05:52:18;;;;;;;17.92;6.80;;;;;;;;;;5009565;28;20388;-78
2022/10/08 05:54:44;;;;;;;9.55;5.88;;;;;;;;;;5007262;28;20030;-78
2022/10/08 05:57:10;;;;;;;10.05;4.97;;;;;;;;;;4997985;28;20042;-77
2022/10/08 05:59:36;;;;;;;11.13;6.30;;;;;;;;;;5003007;28;20030;-77
2022/10/08 06:02:02;;;;;;;14.05;5.35;;;;;;;;;;5005537;28;20113;-78
2022/10/08 06:04:28;;;;;;;9.70;5.80;;;;;;;;;;5006273;28;20113;-78
2022/10/08 06:06:54;;;;;;;11.93;5.95;;;;;;;;;;5004287;28;20116;-78
2022/10/08 06:09:21;;;;;;;8.77;6.43;;;;;;;;;;5002769;28;20136;-78
2022/10/08 06:11:47;;;;;;;12.40;6.50;;;;;;;;;;5011556;28;20947;-78
2022/10/08 06:14:19;;;;;;;12.75;5.63;;;;;;;;;;5002929;28;20124;-78
2022/10/08 06:16:45;;;;;;;12.60;6.38;;;;;;;;;;5007052;28;20536;-78
2022/10/08 06:19:11;;;;;;;16.83;6.30;;;;;;;;;;5003121;28;20022;-78
2022/10/08 06:21:37;;;;;;;11.00;5.90;;;;;;;;;;4998856;28;20045;-78
2022/10/08 06:24:04;;;;;;;9.48;5.38;;;;;;;;;;5008796;28;20103;-78
2022/10/08 06:26:32;;;;;;;11.32;6.13;;;;;;;;;;5003191;28;20096;-78
2022/10/08 06:28:58;;;;;;;11.15;6.40;;;;;;;;;;5002182;28;20392;-77
2022/10/08 06:31:25;;;;;;;14.13;7.80;;;;;;;;;;5005502;28;20726;-77
2022/10/08 06:33:54;;;;;;;8.95;6.07;;;;;;;;;;5004959;28;21330;-77
2022/10/08 06:36:24;;;;;;;16.85;7.30;;;;;;;;;;5007177;28;20030;-78
2022/10/08 06:38:54;;;;;;;9.30;5.15;;;;;;;;;;5006482;28;20049;-78
2022/10/08 06:41:20;;;;;;;10.13;5.20;;;;;;;;;;5002181;28;20496;-78
2022/10/08 06:43:47;;;;;;;10.57;5.32;;;;;;;;;;4999385;28;20041;-77
2022/10/08 06:46:13;;;;;;;8.45;5.05;;;;;;;;;;5003902;28;20038;-78
2022/10/08 06:48:39;;;;;;;8.15;5.07;;;;;;;;;;5013943;28;20116;-79
2022/10/08 06:51:12;;;;;;;11.38;5.55;;;;;;;;;;4994299;28;20133;-77
2022/10/08 06:53:39;;;;;;;14.35;6.57;;;;;;;;;;4998826;28;20030;-78
2022/10/08 06:56:06;;;;;;;11.27;5.93;;;;;;;;;;5002370;28;20034;-78
2022/10/08 06:58:34;;;;;;;12.88;6.22;;;;;;;;;;5005904;28;20511;-78
2022/10/08 07:01:01;;;;;;;12.93;6.80;;;;;;;;;;5007066;28;20046;-78
2022/10/08 07:03:27;;;;;;;17.45;6.65;;;;;;;;;;5008227;28;20056;-78
2022/10/08 07:05:53;;;;;;;21.08;5.68;;;;;;;;;;5005012;28;20477;-78
2022/10/08 07:08:19;;;;;;;13.38;5.10;;;;;;;;;;5004076;28;20042;-78
2022/10/08 07:10:46;;;;;;;11.65;5.50;;;;;;;;;;5007521;28;20121;-77
2022/10/08 07:13:12;;;;;;;10.13;5.05;;;;;;;;;;5004479;28;20718;-78
2022/10/08 07:15:38;;;;;;;10.48;5.50;;;;;;;;;;5010438;28;20025;-77
2022/10/08 07:18:04;;;;;;;18.55;5.80;;;;;;;;;;5004089;28;20066;-78
2022/10/08 07:20:30;;;;;;;14.52;5.07;;;;;;;;;;5000630;28;20062;-78
2022/10/08 07:22:56;;;;;;;13.52;5.70;;;;;;;;;;5003657;28;20131;-78
2022/10/08 07:25:21;;;;;;;11.40;5.28;;;;;;;;;;5003846;28;20104;-78
2022/10/08 07:27:48;;;;;;;10.57;5.30;;;;;;;;;;4999096;28;20045;-77
2022/10/08 07:30:14;;;;;;;11.55;5.68;;;;;;;;;;4996714;28;20033;-77
2022/10/08 07:32:41;;;;;;;11.88;5.45;;;;;;;;;;5007217;28;20049;-77
2022/10/08 07:35:07;;;;;;;9.55;6.05;;;;;;;;;;5007554;28;20547;-77
2022/10/08 07:37:33;;;;;;;11.13;5.35;;;;;;;;;;5010627;28;20059;-77
2022/10/08 07:39:59;;;;;;;14.27;5.70;;;;;;;;;;5007874;28;20050;-77
2022/10/08 07:42:25;;;;;;;12.25;6.53;;;;;;;;;;5001821;28;20458;-77
2022/10/08 07:44:51;;;;;;;10.55;6.00;;;;;;;;;;5005869;28;20042;-77
2022/10/08 07:47:17;;;;;;;10.18;6.13;;;;;;;;;;5006642;28;20052;-77
2022/10/08 07:49:43;;;;;;;11.10;6.53;;;;;;;;;;5004607;28;20093;-77
2022/10/08 07:52:09;;;;;;;11.38;7.13;;;;;;;;;;5000312;28;20476;-77
2022/10/08 07:54:35;;;;;;;11.52;6.22;;;;;;;;;;5005519;28;20029;-77
2022/10/08 07:57:01;;;;;;;9.07;5.93;;;;;;;;;;5004277;28;20122;-77
2022/10/08 07:59:28;;;;;;;9.43;6.18;;;;;;;;;;5005215;28;20076;-77
2022/10/08 08:01:54;;;;;;;18.20;6.70;;;;;;;;;;5004198;28;20050;-77
2022/10/08 08:04:20;;;;;;;13.45;6.55;;;;;;;;;;5011739;28;20026;-78
2022/10/08 08:06:47;;;;;;;13.77;6.50;;;;;;;;;;5003101;28;20081;-78
2022/10/08 08:09:13;;;;;;;15.15;6.38;;;;;;;;;;5002748;28;20022;-77
2022/10/08 08:11:40;;;;;;;12.38;6.13;;;;;;;;;;5002257;28;20046;-77
2022/10/08 08:14:06;;;;;;;11.38;5.57;;;;;;;;;;4999757;28;20081;-77
2022/10/08 08:16:32;;;;;;;12.45;5.70;;;;;;;;;;5010602;28;20022;-78
2022/10/08 08:19:00;;;;;;;11.00;6.00;;;;;;;;;;5003176;28;20508;-77
2022/10/08 08:21:30;;;;;;;11.73;6.10;;;;;;;;;;5002110;28;20385;-77
2022/10/08 08:23:57;;;;;;;17.13;7.30;;;;;;;;;;5006711;28;20097;-77
2022/10/08 08:26:24;;;;;;;9.68;5.22;;;;;;;;;;4998664;28;20038;-77
2022/10/08 08:28:54;;;;;;;9.07;4.90;;;;;;;;;;5000448;28;20511;-77
2022/10/08 08:31:22;;;;;;;8.80;4.68;;;;;;;;;;5002266;28;20049;-78
2022/10/08 08:33:49;;;;;;;7.50;4.30;;;;;;;;;;5002751;28;20026;-77
2022/10/08 08:36:17;;;;;;;7.40;4.90;;;;;;;;;;5004629;28;20068;-77
2022/10/08 08:38:43;;;;;;;10.88;5.30;;;;;;;;;;5003591;28;20071;-77
2022/10/08 08:41:19;;;;;;;13.05;5.80;;;;;;;;;;4998697;28;20046;-77
2022/10/08 08:43:45;;;;;;;10.98;6.53;;;;;;;;;;5006347;28;20042;-78
2022/10/08 08:46:13;;;;;;;9.07;5.97;;;;;;;;;;5003128;28;20037;-77
2022/10/08 08:48:42;;;;;;;10.43;6.60;;;;;;;;;;5003355;28;20048;-77
2022/10/08 08:51:08;;;;;;;11.15;6.65;;;;;;;;;;5007565;28;20073;-77
2022/10/08 08:53:34;;;;;;;11.23;6.70;;;;;;;;;;5008918;28;20054;-77
2022/10/08 08:56:02;;;;;;;9.60;6.15;;;;;;;;;;5003832;28;20031;-77
2022/10/08 08:58:34;;;;;;;9.70;6.25;;;;;;;;;;5008963;28;20450;-77
2022/10/08 09:01:14;;;;;;;10.98;7.43;;;;;;;;;;5000557;28;20042;-77
2022/10/08 09:03:49;;;;;;;12.25;6.40;;;;;;;;;;5017477;28;20073;-77
2022/10/08 09:06:18;;;;;;;9.25;6.70;;;;;;;;;;5012650;28;20421;-77
2022/10/08 09:08:50;;;;;;;10.23;6.28;;;;;;;;;;5009566;28;20038;-77
2022/10/08 09:11:18;;;;;;;9.55;5.90;;;;;;;;;;5004224;28;20120;-77
2022/10/08 09:13:50;;;;;;;9.57;6.43;;;;;;;;;;5004970;28;20030;-78
2022/10/08 09:16:16;;;;;;;10.10;6.90;;;;;;;;;;5008277;28;20065;-77
2022/10/08 09:18:44;;;;;;;15.73;6.95;;;;;;;;;;5002966;28;20029;-77
2022/10/08 09:21:10;;;;;;;8.75;6.20;;;;;;;;;;5014332;28;20042;-77
2022/10/08 09:23:36;;;;;;;11.75;5.88;;;;;;;;;;5004516;28;20125;-77
2022/10/08 09:26:08;;;;;;;9.85;5.70;;;;;;;;;;5002002;28;20042;-77
2022/10/08 09:28:48;;;;;;;10.43;6.68;;;;;;;;;;5008355;28;20034;-77
2022/10/08 09:31:33;;;;;;;9.95;6.45;;;;;;;;;;5005235;28;20029;-77
2022/10/08 09:34:14;;;;;;;11.38;6.57;;;;;;;;;;5006441;28;20091;-77
2022/10/08 09:36:59;;;;;;;10.48;5.82;;;;;;;;;;5007605;28;20030;-77
2022/10/08 09:39:26;;;;;;;10.68;6.50;;;;;;;;;;5009067;28;20026;-76
2022/10/08 09:42:13;;;;;;;12.20;6.70;;;;;;;;;;5009921;28;20041;-77
2022/10/08 09:44:42;;;;;;;8.38;5.72;;;;;;;;;;5009260;28;20068;-77
2022/10/08 09:47:15;;;;;;;14.13;6.00;;;;;;;;;;5009388;28;20046;-77
2022/10/08 09:49:42;;;;;;;11.40;6.75;;;;;;;;;;5008157;28;20044;-78
2022/10/08 09:52:27;;;;;;;15.70;6.57;;;;;;;;;;5014705;28;20076;-77
2022/10/08 09:54:55;;;;;;;12.05;6.22;;;;;;;;;;5014463;28;20397;-77
2022/10/08 09:57:22;;;;;;;12.27;6.40;;;;;;;;;;5015619;28;20114;-77
2022/10/08 09:59:52;;;;;;;12.45;6.25;;;;;;;;;;5013148;28;20388;-77
2022/10/08 10:02:27;;;;;;;10.63;5.95;;;;;;;;;;4997448;28;20029;-77
2022/10/08 10:04:53;;;;;;;13.02;5.97;;;;;;;;;;5004055;28;20034;-77
2022/10/08 10:07:19;;;;;;;9.70;6.15;;;;;;;;;;5006290;28;20053;-77
2022/10/08 10:09:53;;;;;;;13.85;6.13;;;;;;;;;;5008093;28;20709;-77
2022/10/08 10:12:31;;;;;;;13.75;6.28;;;;;;;;;;5001367;28;20109;-77
2022/10/08 10:14:57;;;;;;;11.63;5.93;;;;;;;;;;5002042;28;20030;-75
2022/10/08 10:17:46;;;;;;;11.48;6.03;;;;;;;;;;5003220;28;20476;-76
2022/10/08 10:20:24;;;;;;;13.07;6.70;;;;;;;;;;4975132;28;20050;-76
2022/10/08 10:22:50;;;;;;;13.60;7.13;;;;;;;;;;5001931;28;20029;-77
2022/10/08 10:25:22;;;;;;;14.07;7.80;;;;;;;;;;5000125;28;20373;-77
2022/10/08 10:27:51;;;;;;;12.25;7.43;;;;;;;;;;5005532;28;20033;-77
2022/10/08 10:30:21;;;;;;;11.45;6.68;;;;;;;;;;5010375;28;20065;-76
2022/10/08 10:32:54;;;;;;;12.23;7.35;;;;;;;;;;5006752;28;20033;-76
2022/10/08 10:35:20;;;;;;;10.38;7.07;;;;;;;;;;5008228;28;20058;-76
2022/10/08 10:37:51;;;;;;;15.23;6.57;;;;;;;;;;5001636;28;20465;-77
2022/10/08 10:40:29;;;;;;;15.40;6.93;;;;;;;;;;4996872;28;20042;-76
2022/10/08 10:43:13;;;;;;;10.32;6.15;;;;;;;;;;4998566;28;20291;-76
2022/10/08 10:45:41;;;;;;;11.85;5.95;;;;;;;;;;5006054;28;20044;-76
2022/10/08 10:48:08;;;;;;;9.73;5.85;;;;;;;;;;4993933;28;20038;-76
2022/10/08 10:50:41;;;;;;;10.02;6.22;;;;;;;;;;4996862;28;20034;-76
2022/10/08 10:53:27;;;;;;;13.55;6.57;;;;;;;;;;5003772;28;20029;-76
2022/10/08 10:56:00;;;;;;;10.93;6.55;;;;;;;;;;5011761;28;20036;-76
2022/10/08 10:58:40;;;;;;;14.98;7.20;;;;;;;;;;5005898;28;20731;-76
2022/10/08 11:01:17;;;;;;;11.40;6.78;;;;;;;;;;5006307;28;20030;-76
2022/10/08 11:04:02;;;;;;;13.82;6.75;;;;;;;;;;5010002;28;20044;-76
2022/10/08 11:06:34;;;;;;;16.55;6.53;;;;;;;;;;5001360;28;20029;-76
2022/10/08 11:09:00;;;;;;;13.60;6.90;;;;;;;;;;5000822;28;20121;-76
2022/10/08 11:11:39;;;;;;;9.63;7.05;;;;;;;;;;5006618;28;20532;-77
2022/10/08 11:14:32;;;;;;;9.82;6.80;;;;;;;;;;5002521;28;20036;-76
2022/10/08 11:17:13;;;;;;;10.20;6.15;;;;;;;;;;4999921;28;20053;-76
2022/10/08 11:19:45;;;;;;;10.85;7.97;;;;;;;;;;4998957;28;20026;-76
2022/10/08 11:22:19;;;;;;;12.40;7.63;;;;;;;;;;4995317;28;20491;-76
2022/10/08 11:24:58;;;;;;;13.45;7.25;;;;;;;;;;5007265;28;20217;-77
2022/10/08 11:27:42;;;;;;;10.55;6.57;;;;;;;;;;5008501;28;20717;-76
2022/10/08 11:30:12;;;;;;;13.25;7.63;;;;;;;;;;5003473;28;20064;-76
2022/10/08 11:32:39;;;;;;;15.70;7.80;;;;;;;;;;5001711;28;20029;-76
2022/10/08 11:35:12;;;;;;;14.02;7.88;;;;;;;;;;5002829;28;20057;-76
2022/10/08 11:37:43;;;;;;;17.40;8.13;;;;;;;;;;4998331;28;20045;-76
2022/10/08 11:40:29;;;;;;;12.40;7.53;;;;;;;;;;5007682;28;20041;-76
2022/10/08 11:43:01;;;;;;;13.70;8.45;;;;;;;;;;5005084;28;20057;-76
2022/10/08 11:45:36;;;;;;;10.77;7.63;;;;;;;;;;5011614;28;20048;-76
2022/10/08 11:48:22;;;;;;;9.32;7.10;;;;;;;;;;5012288;28;20837;-76
2022/10/08 11:50:48;;;;;;;10.85;7.72;;;;;;;;;;5001705;28;20107;-76
2022/10/08 11:53:19;;;;;;;14.88;8.73;;;;;;;;;;5001967;28;20617;-76
2022/10/08 11:55:59;;;;;;;11.48;8.40;;;;;;;;;;5007790;28;20037;-76
2022/10/08 11:58:27;;;;;;;13.30;7.50;;;;;;;;;;5011799;28;20038;-76
2022/10/08 12:01:06;;;;;;;12.93;8.27;;;;;;;;;;5001559;28;20049;-76
2022/10/08 12:03:59;;;;;;;16.75;8.80;;;;;;;;;;5004146;28;20033;-76
2022/10/08 12:06:28;;;;;;;10.90;7.07;;;;;;;;;;5003273;28;20050;-76
2022/10/08 12:08:58;;;;;;;15.55;9.15;;;;;;;;;;5006921;28;20033;-76
2022/10/08 12:11:36;;;;;;;12.65;8.48;;;;;;;;;;5003903;28;20101;-76
2022/10/08 12:14:14;;;;;;;16.90;9.02;;;;;;;;;;4995302;28;20034;-76
2022/10/08 12:16:55;;;;;;;12.13;8.05;;;;;;;;;;5012222;28;20037;-75
2022/10/08 12:19:33;;;;;;;13.30;8.52;;;;;;;;;;4998803;28;20030;-76
2022/10/08 12:22:04;;;;;;;11.48;8.15;;;;;;;;;;5005630;28;20044;-76
2022/10/08 12:24:39;;;;;;;14.13;9.20;;;;;;;;;;5010524;28;20044;-76
2022/10/08 12:27:17;;;;;;;17.77;9.15;;;;;;;;;;5011900;28;20082;-76
2022/10/08 12:30:09;;;;;;;16.02;9.02;;;;;;;;;;5014206;28;20384;-76
2022/10/08 12:32:41;;;;;;;15.88;9.20;;;;;;;;;;5006932;28;20084;-77
2022/10/08 12:35:40;;;;;;;16.25;9.52;;;;;;;;;;5014903;28;20493;-76
2022/10/08 12:38:08;;;;;;;19.60;9.65;;;;;;;;;;4981613;28;20477;-77
2022/10/08 12:40:34;;;;;;;10.88;8.82;;;;;;;;;;5010102;28;20033;-76
2022/10/08 12:43:19;;;;;;;17.38;10.40;;;;;;;;;;5008306;28;20124;-76
2022/10/08 12:45:53;;;;;;;15.23;10.05;;;;;;;;;;5008270;28;20123;-76
2022/10/08 12:48:32;;;;;;;16.58;10.95;;;;;;;;;;5008420;28;20034;-76
2022/10/08 12:51:09;;;;;;;16.20;9.57;;;;;;;;;;5010912;28;20079;-76
2022/10/08 12:53:35;;;;;;;16.63;10.25;;;;;;;;;;5008592;28;20030;-76
2022/10/08 12:56:01;;;;;;;12.30;10.05;;;;;;;;;;5010197;28;20029;-77
2022/10/08 12:58:32;;;;;;;11.80;8.90;;;;;;;;;;5006989;28;20145;-76
2022/10/08 13:01:00;;;;;;;14.63;8.77;;;;;;;;;;5009887;28;22270;-76
2022/10/08 13:03:26;;;;;;;13.85;8.32;;;;;;;;;;5013971;28;20112;-77
2022/10/08 13:05:56;;;;;;;13.48;8.27;;;;;;;;;;5009758;28;20785;-76
2022/10/08 13:08:25;;;;;;;14.82;7.95;;;;;;;;;;5012880;28;20057;-77
2022/10/08 13:10:51;;;;;;;13.18;8.05;;;;;;;;;;5018624;28;20121;-76
2022/10/08 13:13:30;;;;;;;9.43;6.72;;;;;;;;;;5013141;28;20104;-76
2022/10/08 13:16:00;;;;;;;14.55;7.65;;;;;;;;;;5011486;28;20362;-76
2022/10/08 13:18:28;;;;;;;12.65;8.07;;;;;;;;;;5010352;28;20052;-76
2022/10/08 13:21:20;;;;;;;11.48;7.97;;;;;;;;;;5012937;28;20088;-76
2022/10/08 13:23:46;;;;;;;11.45;6.85;;;;;;;;;;4986196;28;20041;-76
2022/10/08 13:26:30;;;;;;;11.45;7.88;;;;;;;;;;5012165;28;20067;-76
2022/10/08 13:29:15;;;;;;;10.88;7.22;;;;;;;;;;5005989;28;20481;-76
2022/10/08 13:31:41;;;;;;;10.07;6.53;;;;;;;;;;5002089;28;20065;-76
2022/10/08 13:34:14;;;;;;;7.75;4.65;;;;;;;;;;5010621;28;20065;-77
2022/10/08 13:36:46;;;;;;;10.65;4.60;;;;;;;;;;5010791;28;20112;-76
2022/10/08 13:39:20;;;;;;;8.05;4.13;;;;;;;;;;5003286;28;20030;-76
2022/10/08 13:41:50;;;;;;;8.30;4.70;;;;;;;;;;5014271;28;20041;-77
2022/10/08 13:44:16;;;;;;;7.95;5.03;;;;;;;;;;4999155;28;20041;-76
2022/10/08 13:46:42;;;;;;;9.57;5.20;;;;;;;;;;5000391;28;20033;-76
2022/10/08 13:49:22;;;;;;;10.90;5.40;;;;;;;;;;5002248;28;20036;-76
2022/10/08 13:51:48;;;;;;;9.15;5.70;;;;;;;;;;5003932;28;20049;-76
2022/10/08 13:54:29;;;;;;;9.88;5.88;;;;;;;;;;5010744;28;20053;-76
2022/10/08 13:56:55;;;;;;;11.05;5.50;;;;;;;;;;5008017;28;20635;-77
2022/10/08 13:59:21;;;;;;;12.63;5.60;;;;;;;;;;5003235;28;20497;-77
2022/10/08 14:01:47;;;;;;;7.80;5.95;;;;;;;;;;5008703;28;20080;-76
2022/10/08 14:04:14;;;;;;;8.52;5.82;;;;;;;;;;4999958;28;20149;-76
2022/10/08 14:06:40;;;;;;;9.07;6.30;;;;;;;;;;5013101;28;20085;-77
2022/10/08 14:09:08;;;;;;;10.93;6.90;;;;;;;;;;5001537;28;20845;-76
2022/10/08 14:11:34;;;;;;;12.70;7.82;;;;;;;;;;5004679;28;20492;-76
2022/10/08 14:14:01;;;;;;;9.35;7.25;;;;;;;;;;5000989;28;20042;-76
2022/10/08 14:16:27;;;;;;;13.07;7.00;;;;;;;;;;5011920;28;20022;-76
2022/10/08 14:18:53;;;;;;;12.70;8.02;;;;;;;;;;5000989;28;20033;-76
2022/10/08 14:21:19;;;;;;;8.45;6.78;;;;;;;;;;5013745;28;20033;-76
2022/10/08 14:23:45;;;;;;;10.75;7.85;;;;;;;;;;4999718;28;20474;-76
2022/10/08 14:26:11;;;;;;;11.88;7.78;;;;;;;;;;5009997;28;20034;-76
2022/10/08 14:28:38;;;;;;;13.77;7.90;;;;;;;;;;5007176;28;20041;-76
2022/10/08 14:31:04;;;;;;;11.48;8.00;;;;;;;;;;5001600;28;20038;-77
2022/10/08 14:33:30;;;;;;;12.20;8.05;;;;;;;;;;5005576;28;20049;-76
2022/10/08 14:35:56;;;;;;;11.48;7.93;;;;;;;;;;5006642;28;20779;-76
2022/10/08 14:38:23;;;;;;;11.23;8.13;;;;;;;;;;5002497;28;20034;-76
2022/10/08 14:40:49;;;;;;;10.55;7.15;;;;;;;;;;4999836;28;20070;-76
2022/10/08 14:43:15;;;;;;;11.75;7.47;;;;;;;;;;5003931;28;20123;-76
2022/10/08 14:45:41;;;;;;;12.77;9.00;;;;;;;;;;5006725;28;20121;-76
2022/10/08 14:48:09;;;;;;;11.07;8.77;;;;;;;;;;5005149;28;20033;-76
2022/10/08 14:50:35;;;;;;;13.18;9.27;;;;;;;;;;5009820;28;20052;-76
2022/10/08 14:53:01;;;;;;;12.45;8.25;;;;;;;;;;5007867;28;20026;-76